Golden Taka — H8EM — position and weather

sailwx.info

Track history (hours):
 
Tides and Currents Weather Stations Pressure Air Temp Water Temp Dewpoint Dewpoint Depression Visibility Wind Speed Wind Dir Waves Ship Positions

Golden Taka

Last reported at 2018-Jan-11 01:41 UTC. Time now 2018-Feb-20 17:55 UTC.
Position S 33°06' E 152°23'.
Warning: this ship's position is 40 days out of date.

Length 144 m; draft 9.6 m.

Type: Ship (hazmat cat B). MMSI: 357039000.

Date/timePositionNaut miles runAvg speedWind from/ knotsBaromVisibWave heightAir tempDewpointWater temp
2018-Jan-11 01:41S 33°06' E 152°23'313.9
2018-Jan-11 01:28S 33°03' E 152°25'613.6
2018-Jan-11 01:00S 32°58' E 152°29'713.4
2018-Jan-11 00:30S 32°53' E 152°34'713.1
2018-Jan-10 23:58S 32°47' E 152°39'612.8
2018-Jan-10 23:29S 32°43' E 152°44'612.5
2018-Jan-10 23:00S 32°38' E 152°48'25613.2
2018-Jan-10 03:40S 28°32' E 154°09'3215.8
2018-Jan-10 01:39S 28°00' E 154°10'  
Track history (hours):
 
Tides and Currents Weather Stations Pressure Air Temp Water Temp Dewpoint Dewpoint Depression Visibility Wind Speed Wind Dir Waves Ship Positions

Golden Taka

Last reported at 2018-Jan-11 01:41 UTC. Time now 2018-Feb-20 17:55 UTC.
Position S 33°06' E 152°23'.
Warning: this ship's position is 40 days out of date.

Length 144 m; draft 9.6 m.

Type: Ship (hazmat cat B). MMSI: 357039000.

Date/timePositionNaut miles runAvg speedWind from/ knotsBaromVisibWave heightAir tempDewpointWater temp
2018-Jan-11 01:41S 33°06' E 152°23'313.9
2018-Jan-11 01:28S 33°03' E 152°25'613.6
2018-Jan-11 01:00S 32°58' E 152°29'713.4
2018-Jan-11 00:30S 32°53' E 152°34'713.1
2018-Jan-10 23:58S 32°47' E 152°39'612.8
2018-Jan-10 23:29S 32°43' E 152°44'612.5
2018-Jan-10 23:00S 32°38' E 152°48'25613.2
2018-Jan-10 03:40S 28°32' E 154°09'3215.8
2018-Jan-10 01:39S 28°00' E 154°10'  

Dump ship's entire track history